Time;durP1;ratioP1;P1;durP2;ratioP2;P2;SDS_P1;SDS_P2;PMS_P1;PMS_P2;Temp;Humidity;BMP_temperature;BMP_pressure;BME280_temperature;BME280_humidity;BME280_pressure;Samples;Min_cycle;Max_cycle;Signal;HPM_P1;HPM_P2
2023/10/16 00:01:31;;;;;;;3.40;1.00;;;;;;;;;;5052083;28;20798;-83
2023/10/16 00:03:58;;;;;;;2.60;1.00;;;;;;;;;;5051729;28;20671;-82
2023/10/16 00:06:26;;;;;;;3.07;1.10;;;;;;;;;;5052068;28;20203;-82
2023/10/16 00:08:59;;;;;;;4.40;1.17;;;;;;;;;;5051607;28;20225;-82
2023/10/16 00:11:28;;;;;;;2.83;1.07;;;;;;;;;;5051992;28;20286;-82
2023/10/16 00:13:56;;;;;;;3.43;1.10;;;;;;;;;;5052034;28;20286;-82
2023/10/16 00:16:24;;;;;;;5.47;1.30;;;;;;;;;;5051895;28;20291;-82
2023/10/16 00:18:53;;;;;;;3.30;1.17;;;;;;;;;;5052026;28;20292;-82
2023/10/16 00:21:20;;;;;;;4.20;1.07;;;;;;;;;;5051803;28;20287;-82
2023/10/16 00:23:47;;;;;;;2.40;1.00;;;;;;;;;;5051580;28;20271;-81
2023/10/16 00:26:19;;;;;;;2.63;1.20;;;;;;;;;;5051356;28;20319;-82
2023/10/16 00:29:00;;;;;;;2.73;1.00;;;;;;;;;;5051640;28;20695;-81
2023/10/16 00:31:32;;;;;;;3.13;1.13;;;;;;;;;;5051253;28;20195;-82
2023/10/16 00:33:59;;;;;;;5.67;1.00;;;;;;;;;;5051861;28;20281;-82
2023/10/16 00:36:30;;;;;;;2.73;1.20;;;;;;;;;;5051577;28;20275;-82
2023/10/16 00:38:58;;;;;;;4.73;1.20;;;;;;;;;;5050934;28;20207;-82
2023/10/16 00:41:28;;;;;;;6.70;1.47;;;;;;;;;;5051390;28;20246;-81
2023/10/16 00:43:57;;;;;;;2.43;1.13;;;;;;;;;;5051655;28;20191;-82
2023/10/16 00:46:32;;;;;;;3.13;1.10;;;;;;;;;;5051357;28;20200;-82
2023/10/16 00:49:00;;;;;;;2.87;1.10;;;;;;;;;;5051028;28;20233;-82
2023/10/16 00:51:28;;;;;;;3.23;1.10;;;;;;;;;;5051082;28;20624;-81
2023/10/16 00:53:55;;;;;;;2.50;1.00;;;;;;;;;;5051092;28;20209;-82
2023/10/16 00:56:27;;;;;;;2.83;0.80;;;;;;;;;;5051184;28;20200;-82
2023/10/16 00:58:55;;;;;;;4.00;1.23;;;;;;;;;;5051459;28;20206;-82
2023/10/16 01:01:25;;;;;;;1.80;0.90;;;;;;;;;;5050938;28;20227;-82
2023/10/16 01:03:57;;;;;;;2.87;1.00;;;;;;;;;;5051373;28;20192;-82
2023/10/16 01:06:34;;;;;;;4.47;1.10;;;;;;;;;;5050958;28;20200;-81
2023/10/16 01:09:01;;;;;;;3.63;1.20;;;;;;;;;;5051045;28;20255;-83
2023/10/16 01:11:31;;;;;;;4.10;1.20;;;;;;;;;;5050778;28;20254;-82
2023/10/16 01:13:58;;;;;;;5.37;1.20;;;;;;;;;;5051445;28;20238;-82
2023/10/16 01:16:29;;;;;;;2.33;1.20;;;;;;;;;;5050864;28;20628;-82
2023/10/16 01:19:03;;;;;;;3.40;1.10;;;;;;;;;;5050784;28;20207;-82
2023/10/16 01:21:31;;;;;;;4.20;1.13;;;;;;;;;;5050999;28;20201;-83
2023/10/16 01:24:03;;;;;;;5.60;1.40;;;;;;;;;;5050996;28;20279;-82
2023/10/16 01:26:30;;;;;;;4.70;1.30;;;;;;;;;;5050691;28;20210;-83
2023/10/16 01:28:57;;;;;;;4.93;1.30;;;;;;;;;;5044548;28;20239;-82
2023/10/16 01:31:25;;;;;;;2.20;0.97;;;;;;;;;;5039572;28;20204;-82
2023/10/16 01:33:54;;;;;;;5.17;1.10;;;;;;;;;;5031151;28;20209;-82
2023/10/16 01:36:23;;;;;;;3.27;1.10;;;;;;;;;;5030757;28;20223;-82
2023/10/16 01:38:50;;;;;;;3.33;1.20;;;;;;;;;;5030632;28;20204;-82
2023/10/16 01:41:19;;;;;;;4.67;1.20;;;;;;;;;;5031102;28;20612;-82
2023/10/16 01:43:46;;;;;;;3.90;1.30;;;;;;;;;;5030933;28;20212;-82
2023/10/16 01:46:14;;;;;;;3.07;1.30;;;;;;;;;;5031054;28;20201;-82
2023/10/16 01:48:42;;;;;;;6.50;1.27;;;;;;;;;;5030868;28;20220;-81
2023/10/16 01:51:10;;;;;;;3.60;0.90;;;;;;;;;;5030703;28;20216;-81
2023/10/16 01:53:39;;;;;;;2.17;0.97;;;;;;;;;;5030884;28;20685;-82
2023/10/16 01:56:13;;;;;;;4.27;0.93;;;;;;;;;;5030734;28;20203;-82
2023/10/16 01:58:42;;;;;;;2.93;1.17;;;;;;;;;;5030647;28;20200;-81
2023/10/16 02:01:10;;;;;;;3.03;1.33;;;;;;;;;;5030920;28;20627;-81
2023/10/16 02:03:38;;;;;;;3.40;1.20;;;;;;;;;;5031099;28;20254;-81
2023/10/16 02:06:05;;;;;;;2.57;1.10;;;;;;;;;;5030385;28;20196;-82
2023/10/16 02:08:32;;;;;;;4.17;1.37;;;;;;;;;;5034228;28;20224;-81
2023/10/16 02:11:00;;;;;;;2.80;0.90;;;;;;;;;;5033983;28;20711;-81
2023/10/16 02:13:27;;;;;;;3.33;0.90;;;;;;;;;;5034264;28;20687;-82
2023/10/16 02:15:56;;;;;;;3.10;1.10;;;;;;;;;;5034405;28;20586;-83
2023/10/16 02:18:24;;;;;;;4.27;1.20;;;;;;;;;;5039867;28;20274;-82
2023/10/16 02:20:51;;;;;;;2.93;1.20;;;;;;;;;;5053768;28;20306;-82
2023/10/16 02:23:19;;;;;;;3.60;1.00;;;;;;;;;;5054082;28;20196;-82
2023/10/16 02:25:46;;;;;;;4.67;1.43;;;;;;;;;;5053529;28;20250;-83
2023/10/16 02:28:14;;;;;;;3.40;1.10;;;;;;;;;;5053855;28;20254;-81
2023/10/16 02:30:41;;;;;;;3.47;1.10;;;;;;;;;;5054025;28;20235;-82
2023/10/16 02:33:14;;;;;;;4.67;1.30;;;;;;;;;;5053489;28;20220;-83
2023/10/16 02:35:43;;;;;;;2.70;1.13;;;;;;;;;;5053522;28;20749;-81
2023/10/16 02:38:14;;;;;;;3.23;1.00;;;;;;;;;;5053734;28;20207;-82
2023/10/16 02:40:43;;;;;;;6.87;1.40;;;;;;;;;;5053318;28;20550;-81
2023/10/16 02:43:18;;;;;;;2.50;1.17;;;;;;;;;;5053707;28;20305;-82
2023/10/16 02:45:47;;;;;;;3.33;1.10;;;;;;;;;;5053490;28;20195;-82
2023/10/16 02:48:17;;;;;;;2.00;1.10;;;;;;;;;;5053112;28;20290;-82
2023/10/16 02:50:49;;;;;;;3.87;1.13;;;;;;;;;;5053413;28;20234;-82
2023/10/16 02:53:17;;;;;;;3.13;1.00;;;;;;;;;;5053255;28;20648;-82
2023/10/16 02:55:45;;;;;;;2.70;1.10;;;;;;;;;;5053125;28;20294;-81
2023/10/16 02:58:12;;;;;;;5.00;1.20;;;;;;;;;;5053442;28;20660;-82
2023/10/16 03:00:49;;;;;;;3.93;1.40;;;;;;;;;;5052737;28;20687;-81
2023/10/16 03:03:18;;;;;;;2.93;1.00;;;;;;;;;;5052850;28;20207;-82
2023/10/16 03:05:45;;;;;;;2.87;0.90;;;;;;;;;;5053291;28;20199;-82
2023/10/16 03:08:13;;;;;;;3.17;1.13;;;;;;;;;;5053102;28;20286;-81
2023/10/16 03:10:41;;;;;;;2.97;1.20;;;;;;;;;;5052417;28;20234;-82
2023/10/16 03:13:08;;;;;;;4.20;1.37;;;;;;;;;;5053303;28;20647;-82
2023/10/16 03:15:39;;;;;;;3.40;1.17;;;;;;;;;;5052642;28;20371;-82
2023/10/16 03:18:16;;;;;;;3.37;1.13;;;;;;;;;;5052068;28;20204;-82
2023/10/16 03:20:44;;;;;;;3.27;1.10;;;;;;;;;;5052738;28;20200;-82
2023/10/16 03:23:14;;;;;;;4.73;1.47;;;;;;;;;;5052785;28;20660;-82
2023/10/16 03:25:53;;;;;;;4.63;1.07;;;;;;;;;;5052921;28;20330;-82
2023/10/16 03:28:21;;;;;;;2.60;1.03;;;;;;;;;;5052860;28;20208;-82
2023/10/16 03:30:49;;;;;;;3.27;1.30;;;;;;;;;;5052760;28;20227;-83
2023/10/16 03:33:16;;;;;;;3.20;1.10;;;;;;;;;;5052471;28;20203;-82
2023/10/16 03:35:46;;;;;;;3.83;1.00;;;;;;;;;;5052431;28;20647;-82
2023/10/16 03:38:20;;;;;;;4.30;1.23;;;;;;;;;;5052496;28;20574;-83
2023/10/16 03:40:51;;;;;;;4.47;1.23;;;;;;;;;;5052654;28;20676;-83
2023/10/16 03:43:19;;;;;;;3.40;1.30;;;;;;;;;;5052459;28;20607;-82
2023/10/16 03:45:46;;;;;;;3.87;1.10;;;;;;;;;;5052078;28;20192;-81
2023/10/16 03:48:16;;;;;;;5.40;1.10;;;;;;;;;;5052569;28;20201;-82
2023/10/16 03:50:46;;;;;;;4.30;1.17;;;;;;;;;;5052197;28;20227;-82
2023/10/16 03:53:14;;;;;;;1.70;1.10;;;;;;;;;;5052383;28;20286;-82
2023/10/16 03:55:43;;;;;;;2.87;1.20;;;;;;;;;;5051679;28;20743;-82
2023/10/16 03:58:12;;;;;;;3.03;1.10;;;;;;;;;;5052213;28;20254;-82
2023/10/16 04:00:50;;;;;;;2.37;0.90;;;;;;;;;;5051732;28;20575;-82
2023/10/16 04:03:19;;;;;;;3.93;1.13;;;;;;;;;;5052529;28;20200;-82
2023/10/16 04:05:48;;;;;;;3.60;1.20;;;;;;;;;;5051799;28;20207;-82
2023/10/16 04:08:15;;;;;;;4.93;1.30;;;;;;;;;;5052083;28;20231;-82
2023/10/16 04:10:46;;;;;;;1.90;0.90;;;;;;;;;;5051712;28;20672;-82
2023/10/16 04:13:14;;;;;;;4.23;1.30;;;;;;;;;;5051700;28;20196;-82
2023/10/16 04:18:30;;;;;;;3.70;1.30;;;;;;;;;;5051722;28;20318;-82
2023/10/16 04:23:52;;;;;;;3.80;1.23;;;;;;;;;;5038500;28;20694;-83
2023/10/16 04:31:57;;;;;;;2.73;1.00;;;;;;;;;;5051357;28;20372;-84
2023/10/16 04:34:24;;;;;;;4.83;1.20;;;;;;;;;;5051636;28;20195;-82
2023/10/16 04:36:54;;;;;;;3.37;1.07;;;;;;;;;;5051451;28;20564;-82
2023/10/16 04:47:56;;;;;;;4.30;1.40;;;;;;;;;;4988995;28;20194;-82
2023/10/16 04:50:29;;;;;;;2.60;1.10;;;;;;;;;;4990012;28;20311;-82
2023/10/16 04:53:09;;;;;;;3.33;1.30;;;;;;;;;;4989452;28;20260;-82
2023/10/16 04:55:53;;;;;;;6.57;1.37;;;;;;;;;;4990016;28;20345;-82
2023/10/16 04:58:39;;;;;;;4.47;1.30;;;;;;;;;;4989113;28;20202;-82
2023/10/16 05:04:34;;;;;;;3.97;1.47;;;;;;;;;;4950851;29;20293;-81
2023/10/16 05:07:06;;;;;;;3.27;1.40;;;;;;;;;;4950899;29;20667;-82
2023/10/16 05:18:12;;;;;;;5.27;1.30;;;;;;;;;;5008918;28;20197;-81
2023/10/16 05:21:18;;;;;;;3.97;1.37;;;;;;;;;;5009234;28;20669;-80
2023/10/16 06:16:10;;;;;;;5.20;1.47;;;;;;;;;;4934584;29;20207;-80
2023/10/16 06:18:43;;;;;;;2.87;1.47;;;;;;;;;;4943030;29;20691;-78
2023/10/16 06:21:14;;;;;;;4.70;1.50;;;;;;;;;;4953700;29;20270;-81
2023/10/16 06:23:42;;;;;;;4.43;1.87;;;;;;;;;;4953366;29;20211;-78
2023/10/16 06:26:09;;;;;;;3.23;1.30;;;;;;;;;;4953009;29;20231;-80
2023/10/16 06:28:47;;;;;;;3.27;1.20;;;;;;;;;;4953308;29;20210;-80
2023/10/16 06:31:15;;;;;;;5.47;1.60;;;;;;;;;;4950385;29;20611;-80
2023/10/16 06:33:45;;;;;;;3.83;1.20;;;;;;;;;;4949999;29;20262;-80
2023/10/16 06:36:13;;;;;;;5.40;1.40;;;;;;;;;;4949605;29;20214;-81
2023/10/16 06:38:40;;;;;;;4.07;1.60;;;;;;;;;;5026111;28;20294;-80
2023/10/16 06:41:07;;;;;;;3.27;1.30;;;;;;;;;;5053549;28;20234;-80
2023/10/16 06:43:35;;;;;;;2.37;1.37;;;;;;;;;;5053427;28;20289;-81
2023/10/16 06:46:09;;;;;;;4.13;1.30;;;;;;;;;;5053456;28;20242;-81
2023/10/16 06:48:38;;;;;;;5.20;1.80;;;;;;;;;;5050380;28;20211;-80
2023/10/16 06:51:14;;;;;;;4.37;1.40;;;;;;;;;;5049475;28;20961;-80
2023/10/16 06:53:41;;;;;;;4.63;1.30;;;;;;;;;;5048903;28;20774;-81
2023/10/16 06:56:09;;;;;;;3.83;1.50;;;;;;;;;;4701266;28;10000585;-81
2023/10/16 06:58:36;;;;;;;3.87;1.50;;;;;;;;;;5050111;28;20291;-80
2023/10/16 07:01:04;;;;;;;4.23;1.20;;;;;;;;;;5049296;28;20214;-80
2023/10/16 07:03:33;;;;;;;3.60;1.50;;;;;;;;;;5050894;28;20203;-81
2023/10/16 07:06:05;;;;;;;3.03;1.40;;;;;;;;;;5050386;28;20257;-80
2023/10/16 07:08:33;;;;;;;3.77;1.40;;;;;;;;;;5050294;28;20279;-81
2023/10/16 07:11:03;;;;;;;4.13;1.13;;;;;;;;;;5045682;28;20227;-80
2023/10/16 07:13:32;;;;;;;4.63;1.57;;;;;;;;;;5051469;28;20219;-81
2023/10/16 07:16:00;;;;;;;4.83;1.27;;;;;;;;;;5051616;28;20196;-80
2023/10/16 07:18:28;;;;;;;5.90;1.43;;;;;;;;;;5052755;28;20199;-79
2023/10/16 07:21:07;;;;;;;4.60;1.40;;;;;;;;;;5060110;28;20253;-81
2023/10/16 07:23:36;;;;;;;3.97;1.40;;;;;;;;;;5072340;28;20214;-80
2023/10/16 07:26:03;;;;;;;3.03;1.13;;;;;;;;;;5067472;28;20263;-81
2023/10/16 07:28:31;;;;;;;3.73;1.73;;;;;;;;;;5053254;28;20238;-80
2023/10/16 07:30:59;;;;;;;4.87;1.50;;;;;;;;;;5052538;28;20330;-80
2023/10/16 07:33:26;;;;;;;2.57;1.37;;;;;;;;;;5052024;28;20731;-81
2023/10/16 07:35:54;;;;;;;3.33;1.20;;;;;;;;;;5052520;28;20630;-81
2023/10/16 07:38:22;;;;;;;4.67;1.33;;;;;;;;;;5052160;28;20196;-81
2023/10/16 07:40:52;;;;;;;4.17;1.50;;;;;;;;;;5052254;28;20238;-81
2023/10/16 07:43:26;;;;;;;3.33;1.17;;;;;;;;;;5059898;28;20213;-81
2023/10/16 07:45:53;;;;;;;3.47;1.20;;;;;;;;;;5056348;28;20683;-81
2023/10/16 07:48:21;;;;;;;4.93;1.27;;;;;;;;;;5046047;28;20754;-79
2023/10/16 07:50:49;;;;;;;3.37;1.40;;;;;;;;;;5048037;28;20249;-81
2023/10/16 07:53:18;;;;;;;4.57;1.37;;;;;;;;;;5050757;28;20264;-80
2023/10/16 07:55:50;;;;;;;4.87;1.43;;;;;;;;;;5062203;28;20202;-79
2023/10/16 07:58:23;;;;;;;2.40;1.30;;;;;;;;;;5052400;28;20197;-81
2023/10/16 08:00:59;;;;;;;4.40;1.40;;;;;;;;;;5051835;28;20196;-80
2023/10/16 08:03:27;;;;;;;4.73;1.93;;;;;;;;;;5051817;28;20235;-81
2023/10/16 08:05:54;;;;;;;4.40;1.37;;;;;;;;;;5052014;28;20192;-80
2023/10/16 08:08:35;;;;;;;4.63;1.30;;;;;;;;;;5051556;28;20216;-80
2023/10/16 08:11:12;;;;;;;5.43;1.60;;;;;;;;;;5051622;28;20231;-79
2023/10/16 08:13:46;;;;;;;3.57;1.50;;;;;;;;;;5051901;28;20195;-80
2023/10/16 08:16:17;;;;;;;3.17;1.50;;;;;;;;;;5051730;28;20224;-80
2023/10/16 08:18:45;;;;;;;4.90;1.47;;;;;;;;;;5051665;28;20203;-80
2023/10/16 08:21:16;;;;;;;3.53;1.40;;;;;;;;;;5051796;28;20231;-80
2023/10/16 08:23:45;;;;;;;2.40;1.20;;;;;;;;;;5052081;28;20601;-80
2023/10/16 08:26:28;;;;;;;3.97;1.60;;;;;;;;;;5052800;28;20642;-80
2023/10/16 08:28:56;;;;;;;4.33;1.30;;;;;;;;;;5051695;28;20196;-80
2023/10/16 08:31:24;;;;;;;3.33;1.37;;;;;;;;;;5045536;28;20230;-88
2023/10/16 08:33:51;;;;;;;4.03;1.47;;;;;;;;;;5034814;28;20265;-88
2023/10/16 08:36:20;;;;;;;4.63;1.53;;;;;;;;;;5034132;28;20193;-89
2023/10/16 08:38:53;;;;;;;4.00;1.43;;;;;;;;;;5034657;28;20208;-90
2023/10/16 08:41:30;;;;;;;4.03;1.53;;;;;;;;;;5034574;28;20260;-88
2023/10/16 08:44:04;;;;;;;2.30;1.50;;;;;;;;;;5034086;28;20203;-89
2023/10/16 08:46:33;;;;;;;5.13;2.10;;;;;;;;;;5034325;28;20246;-91
2023/10/16 08:49:03;;;;;;;4.43;1.30;;;;;;;;;;5035162;28;20211;-89
2023/10/16 08:51:31;;;;;;;5.23;1.73;;;;;;;;;;5038758;28;20228;-89
2023/10/16 08:54:03;;;;;;;2.43;1.30;;;;;;;;;;5040562;28;20203;-90
2023/10/16 08:56:30;;;;;;;3.30;1.20;;;;;;;;;;5040263;28;20204;-91
2023/10/16 08:59:04;;;;;;;4.43;1.60;;;;;;;;;;5040219;28;20254;-91
2023/10/16 09:01:32;;;;;;;2.73;1.20;;;;;;;;;;5039259;28;20211;-91
2023/10/16 09:04:01;;;;;;;7.53;1.80;;;;;;;;;;5033703;28;20197;-91
2023/10/16 09:06:30;;;;;;;5.33;1.67;;;;;;;;;;5033465;28;20606;-90
2023/10/16 09:08:58;;;;;;;3.57;1.60;;;;;;;;;;5034164;28;20203;-91
2023/10/16 09:11:26;;;;;;;3.83;1.43;;;;;;;;;;5034127;28;20235;-91
2023/10/16 09:13:54;;;;;;;4.20;1.60;;;;;;;;;;5033804;28;20204;-90
2023/10/16 09:16:23;;;;;;;5.37;1.50;;;;;;;;;;5035694;28;20204;-91
2023/10/16 09:18:52;;;;;;;5.93;1.70;;;;;;;;;;5038053;28;20201;-89
2023/10/16 09:21:24;;;;;;;4.80;1.50;;;;;;;;;;5037347;28;20196;-92
2023/10/16 09:23:58;;;;;;;4.93;1.47;;;;;;;;;;5037711;28;20619;-90
2023/10/16 09:26:28;;;;;;;3.43;1.33;;;;;;;;;;5037297;28;20227;-91
2023/10/16 09:29:03;;;;;;;3.60;1.30;;;;;;;;;;5037685;28;20234;-92
2023/10/16 09:31:32;;;;;;;3.30;1.07;;;;;;;;;;5037677;28;20253;-90
2023/10/16 09:34:00;;;;;;;4.13;1.30;;;;;;;;;;5037233;28;20204;-91
2023/10/16 09:36:36;;;;;;;5.37;1.50;;;;;;;;;;5037804;28;20284;-92
2023/10/16 09:39:16;;;;;;;3.97;1.30;;;;;;;;;;5037703;28;20209;-90
2023/10/16 09:41:46;;;;;;;4.43;1.70;;;;;;;;;;5037262;28;20199;-91
2023/10/16 09:44:23;;;;;;;4.07;1.37;;;;;;;;;;5037044;28;20239;-90
2023/10/16 09:46:54;;;;;;;4.43;1.20;;;;;;;;;;5036203;28;20196;-91
2023/10/16 09:49:23;;;;;;;4.10;1.30;;;;;;;;;;5035653;28;20207;-91
2023/10/16 09:51:57;;;;;;;2.30;1.20;;;;;;;;;;5035659;28;20251;-90
2023/10/16 09:54:25;;;;;;;3.13;1.40;;;;;;;;;;5036588;28;20262;-91
2023/10/16 09:56:58;;;;;;;4.10;1.77;;;;;;;;;;5036980;28;20927;-91
2023/10/16 09:59:31;;;;;;;5.27;1.17;;;;;;;;;;5036627;28;20234;-91
2023/10/16 10:02:08;;;;;;;3.17;1.17;;;;;;;;;;5036703;28;20189;-91
2023/10/16 10:04:36;;;;;;;5.17;1.40;;;;;;;;;;5051502;28;20540;-89
2023/10/16 10:07:11;;;;;;;5.40;1.20;;;;;;;;;;5056750;28;20195;-91
2023/10/16 10:09:42;;;;;;;4.03;1.20;;;;;;;;;;5056811;28;20206;-90
2023/10/16 10:12:23;;;;;;;7.75;1.20;;;;;;;;;;5056443;28;20236;-90
2023/10/16 10:15:03;;;;;;;3.22;1.30;;;;;;;;;;5056260;28;20238;-89
2023/10/16 10:17:34;;;;;;;2.33;1.30;;;;;;;;;;5056374;28;20188;-91
2023/10/16 10:20:08;;;;;;;3.75;1.23;;;;;;;;;;5056410;28;20636;-89
2023/10/16 10:22:36;;;;;;;3.47;1.30;;;;;;;;;;5038525;28;20286;-90
2023/10/16 10:25:12;;;;;;;3.20;1.00;;;;;;;;;;5055645;28;20231;-91
2023/10/16 10:27:42;;;;;;;3.22;1.45;;;;;;;;;;5055174;28;20191;-90
2023/10/16 10:30:16;;;;;;;4.32;1.10;;;;;;;;;;5055768;28;20204;-91
2023/10/16 10:32:45;;;;;;;3.92;1.10;;;;;;;;;;5055769;28;20231;-92
2023/10/16 10:35:26;;;;;;;5.03;1.10;;;;;;;;;;5056039;28;20195;-90
2023/10/16 10:38:07;;;;;;;2.53;1.08;;;;;;;;;;5056018;28;20190;-90
2023/10/16 10:40:35;;;;;;;3.47;1.10;;;;;;;;;;5056589;28;20191;-90
2023/10/16 10:43:04;;;;;;;1.73;0.98;;;;;;;;;;5066318;28;20224;-91
2023/10/16 10:45:35;;;;;;;2.70;1.05;;;;;;;;;;5056416;28;20204;-89
2023/10/16 10:48:09;;;;;;;2.47;1.02;;;;;;;;;;5055604;28;20656;-89
2023/10/16 10:50:38;;;;;;;7.75;1.38;;;;;;;;;;5055736;28;20307;-90
2023/10/16 10:53:13;;;;;;;4.20;1.55;;;;;;;;;;5056826;28;20228;-90
2023/10/16 10:55:53;;;;;;;2.63;1.00;;;;;;;;;;5061253;28;20230;-90
2023/10/16 10:58:23;;;;;;;4.38;1.00;;;;;;;;;;5060932;28;20195;-90
2023/10/16 11:01:00;;;;;;;3.03;1.00;;;;;;;;;;5059672;28;20206;-90
2023/10/16 11:03:45;;;;;;;5.13;1.20;;;;;;;;;;5060249;28;20211;-91
2023/10/16 11:06:16;;;;;;;2.35;1.05;;;;;;;;;;5057523;28;20199;-90
2023/10/16 11:08:44;;;;;;;3.63;1.00;;;;;;;;;;5055431;28;20196;-89
2023/10/16 11:11:12;;;;;;;2.22;1.00;;;;;;;;;;5055817;28;20228;-90
2023/10/16 11:13:46;;;;;;;3.33;1.33;;;;;;;;;;5055278;28;20195;-90
2023/10/16 11:16:14;;;;;;;4.45;0.90;;;;;;;;;;5055461;28;20196;-90
2023/10/16 11:18:58;;;;;;;2.95;1.40;;;;;;;;;;5055421;28;20714;-89
2023/10/16 11:21:27;;;;;;;1.98;1.00;;;;;;;;;;5055067;28;20203;-90
2023/10/16 11:24:00;;;;;;;3.97;1.30;;;;;;;;;;5055019;28;20199;-89
2023/10/16 11:26:30;;;;;;;4.38;1.23;;;;;;;;;;5055450;28;20574;-88
2023/10/16 11:29:00;;;;;;;3.63;1.17;;;;;;;;;;5054877;28;20199;-89
2023/10/16 11:31:28;;;;;;;3.83;1.27;;;;;;;;;;5054500;28;20279;-89
2023/10/16 11:34:12;;;;;;;3.92;1.38;;;;;;;;;;5054485;28;20203;-88
2023/10/16 11:36:39;;;;;;;3.35;1.30;;;;;;;;;;5056526;28;20199;-89
2023/10/16 11:39:11;;;;;;;2.53;1.33;;;;;;;;;;5055299;28;20608;-88
2023/10/16 11:41:38;;;;;;;3.47;1.15;;;;;;;;;;5054994;28;20286;-90
2023/10/16 11:44:14;;;;;;;2.00;1.15;;;;;;;;;;5054831;28;20287;-89
2023/10/16 11:46:46;;;;;;;4.20;1.17;;;;;;;;;;5054883;28;20196;-89
2023/10/16 11:49:32;;;;;;;2.83;1.23;;;;;;;;;;5055291;28;20196;-89
2023/10/16 11:52:08;;;;;;;2.38;1.15;;;;;;;;;;5055306;28;20337;-89
2023/10/16 11:54:36;;;;;;;3.05;1.10;;;;;;;;;;5054210;28;20192;-89
2023/10/16 11:57:06;;;;;;;1.38;1.00;;;;;;;;;;5055228;28;20226;-87
2023/10/16 11:59:33;;;;;;;3.78;1.42;;;;;;;;;;5055065;28;20200;-89
2023/10/16 12:02:10;;;;;;;4.28;1.58;;;;;;;;;;5055251;28;20254;-89
2023/10/16 12:04:41;;;;;;;4.32;1.40;;;;;;;;;;5055781;28;20607;-90
2023/10/16 12:07:08;;;;;;;4.97;1.77;;;;;;;;;;5054406;28;20204;-89
2023/10/16 12:09:47;;;;;;;2.35;1.00;;;;;;;;;;5054757;28;20279;-90
2023/10/16 12:12:19;;;;;;;2.42;1.13;;;;;;;;;;5054049;28;20223;-91
2023/10/16 12:14:48;;;;;;;3.88;1.30;;;;;;;;;;5053997;28;20210;-87
2023/10/16 12:17:15;;;;;;;3.20;1.67;;;;;;;;;;5055030;28;20553;-88
2023/10/16 12:19:45;;;;;;;1.95;1.20;;;;;;;;;;5054129;28;20260;-90
2023/10/16 12:22:15;;;;;;;3.92;1.25;;;;;;;;;;5054562;28;20254;-89
2023/10/16 12:24:44;;;;;;;1.90;1.17;;;;;;;;;;5053955;28;20251;-90
2023/10/16 12:27:15;;;;;;;2.45;1.25;;;;;;;;;;5054019;28;20264;-88
2023/10/16 12:29:44;;;;;;;2.50;1.10;;;;;;;;;;5053318;28;20241;-87
2023/10/16 12:32:16;;;;;;;2.50;1.40;;;;;;;;;;5053093;28;20224;-88
2023/10/16 12:34:45;;;;;;;4.03;1.17;;;;;;;;;;5053663;28;20241;-89
2023/10/16 12:37:13;;;;;;;3.22;1.45;;;;;;;;;;5053463;28;20223;-88
2023/10/16 12:39:46;;;;;;;4.80;1.10;;;;;;;;;;5053832;28;20253;-88
2023/10/16 12:42:13;;;;;;;2.63;1.20;;;;;;;;;;5053546;28;20218;-89
2023/10/16 12:44:44;;;;;;;2.65;1.10;;;;;;;;;;5053636;28;20624;-89
2023/10/16 12:47:12;;;;;;;1.92;0.95;;;;;;;;;;5053659;28;20208;-89
2023/10/16 12:49:39;;;;;;;2.45;0.93;;;;;;;;;;5053780;28;20239;-89
2023/10/16 12:52:10;;;;;;;2.90;0.90;;;;;;;;;;5052715;28;20285;-89
2023/10/16 12:54:43;;;;;;;3.55;1.10;;;;;;;;;;5053196;28;20208;-89
2023/10/16 12:57:10;;;;;;;2.15;0.93;;;;;;;;;;5053252;28;20209;-88
2023/10/16 12:59:38;;;;;;;2.55;1.08;;;;;;;;;;5053229;28;20257;-89
2023/10/16 13:02:05;;;;;;;3.05;0.90;;;;;;;;;;5053375;28;20579;-88
2023/10/16 13:04:33;;;;;;;2.60;1.13;;;;;;;;;;5052963;28;20199;-89
2023/10/16 13:07:03;;;;;;;2.85;0.90;;;;;;;;;;5053653;28;20295;-89
2023/10/16 13:09:32;;;;;;;3.05;0.90;;;;;;;;;;5057219;28;20203;-88
2023/10/16 13:11:59;;;;;;;2.28;1.02;;;;;;;;;;5056079;28;20230;-88
2023/10/16 13:14:27;;;;;;;2.45;1.20;;;;;;;;;;5054589;28;20204;-89
2023/10/16 13:16:54;;;;;;;2.63;1.05;;;;;;;;;;5054121;28;20192;-88
2023/10/16 13:19:21;;;;;;;2.67;1.00;;;;;;;;;;5040608;28;20232;-88
2023/10/16 13:21:51;;;;;;;2.35;1.13;;;;;;;;;;5033455;28;20284;-89
2023/10/16 13:24:21;;;;;;;1.42;0.88;;;;;;;;;;5033173;28;20305;-88
2023/10/16 13:26:50;;;;;;;3.47;1.02;;;;;;;;;;5032587;28;20264;-87
2023/10/16 13:29:18;;;;;;;3.63;1.10;;;;;;;;;;5033574;28;20246;-88
2023/10/16 13:31:46;;;;;;;2.33;0.75;;;;;;;;;;5032946;28;20231;-86
2023/10/16 13:34:15;;;;;;;3.13;1.17;;;;;;;;;;5032711;28;20263;-86
2023/10/16 13:36:56;;;;;;;2.67;0.80;;;;;;;;;;5033307;28;20200;-87
2023/10/16 13:39:24;;;;;;;3.47;1.10;;;;;;;;;;5032535;28;20208;-89
2023/10/16 13:41:56;;;;;;;1.67;0.70;;;;;;;;;;5032457;28;20708;-88
2023/10/16 13:44:24;;;;;;;3.47;1.05;;;;;;;;;;5032654;28;20212;-89
2023/10/16 13:46:52;;;;;;;2.35;1.00;;;;;;;;;;5032713;28;20207;-88
2023/10/16 13:49:19;;;;;;;2.45;1.02;;;;;;;;;;5033160;28;20652;-89
2023/10/16 13:51:52;;;;;;;2.20;1.00;;;;;;;;;;5032613;28;20208;-88
2023/10/16 13:54:24;;;;;;;2.88;0.98;;;;;;;;;;5032281;28;20232;-89
2023/10/16 13:56:51;;;;;;;1.83;0.90;;;;;;;;;;5032299;28;20292;-88
2023/10/16 13:59:20;;;;;;;4.05;1.20;;;;;;;;;;5033106;28;20541;-88
2023/10/16 14:01:47;;;;;;;2.33;1.02;;;;;;;;;;5034061;28;20197;-87
2023/10/16 14:04:16;;;;;;;1.88;1.00;;;;;;;;;;5036467;28;20196;-88
2023/10/16 14:06:48;;;;;;;3.88;0.90;;;;;;;;;;5036193;28;20210;-88
2023/10/16 14:09:20;;;;;;;2.20;0.80;;;;;;;;;;5035942;28;20201;-89
2023/10/16 14:11:50;;;;;;;4.63;1.17;;;;;;;;;;5036230;28;20692;-89
2023/10/16 14:14:24;;;;;;;2.28;0.80;;;;;;;;;;5035948;28;20770;-89
2023/10/16 14:17:02;;;;;;;2.13;0.80;;;;;;;;;;5060734;28;20816;-90
2023/10/16 14:19:30;;;;;;;6.57;1.85;;;;;;;;;;5061572;28;20214;-89
2023/10/16 14:21:57;;;;;;;1.58;0.68;;;;;;;;;;5056400;28;20204;-89
2023/10/16 14:24:25;;;;;;;2.53;1.10;;;;;;;;;;5055421;28;20235;-87
2023/10/16 14:26:54;;;;;;;3.47;1.10;;;;;;;;;;5056140;28;20615;-89
2023/10/16 14:29:22;;;;;;;4.07;1.17;;;;;;;;;;5055399;28;20566;-89
2023/10/16 14:31:50;;;;;;;2.97;1.23;;;;;;;;;;5066454;28;20268;-90
2023/10/16 14:34:22;;;;;;;5.13;1.30;;;;;;;;;;5064398;28;20254;-88
2023/10/16 14:36:50;;;;;;;2.97;1.50;;;;;;;;;;5055424;28;20200;-88
2023/10/16 14:39:18;;;;;;;2.88;1.75;;;;;;;;;;5040826;28;20281;-88
2023/10/16 14:41:48;;;;;;;3.58;1.45;;;;;;;;;;5055435;28;20203;-90
2023/10/16 14:44:16;;;;;;;2.00;1.08;;;;;;;;;;5055461;28;20269;-89
2023/10/16 14:46:46;;;;;;;4.22;1.20;;;;;;;;;;5056177;28;20203;-89
2023/10/16 14:49:13;;;;;;;3.97;1.15;;;;;;;;;;5070710;28;20282;-89
2023/10/16 14:51:42;;;;;;;3.35;1.15;;;;;;;;;;5075295;28;20282;-88
2023/10/16 14:54:13;;;;;;;2.72;0.88;;;;;;;;;;5059153;28;20243;-89
2023/10/16 14:56:44;;;;;;;2.33;1.08;;;;;;;;;;5056071;28;20196;-88
2023/10/16 14:59:12;;;;;;;3.15;1.10;;;;;;;;;;5055791;28;20196;-88
2023/10/16 15:01:39;;;;;;;1.83;0.88;;;;;;;;;;5055674;28;20204;-89
2023/10/16 15:04:08;;;;;;;2.50;0.95;;;;;;;;;;5055575;28;20262;-89
2023/10/16 15:06:36;;;;;;;2.22;0.90;;;;;;;;;;5056027;28;20652;-89
2023/10/16 15:09:09;;;;;;;1.95;0.90;;;;;;;;;;5055819;28;20683;-88
2023/10/16 15:11:37;;;;;;;1.65;1.00;;;;;;;;;;5054653;28;20238;-88
2023/10/16 15:14:04;;;;;;;2.72;1.08;;;;;;;;;;5036213;28;20235;-89
2023/10/16 15:16:32;;;;;;;3.25;1.08;;;;;;;;;;5046242;28;20582;-88
2023/10/16 15:19:00;;;;;;;2.33;1.00;;;;;;;;;;5062154;28;20235;-88
2023/10/16 15:21:27;;;;;;;3.17;1.10;;;;;;;;;;5054323;28;20555;-88
2023/10/16 15:23:55;;;;;;;1.40;0.90;;;;;;;;;;5036018;28;20204;-89
2023/10/16 15:26:24;;;;;;;4.10;0.90;;;;;;;;;;5035247;28;20200;-90
2023/10/16 15:28:52;;;;;;;2.35;1.02;;;;;;;;;;5063420;28;20231;-88
2023/10/16 15:31:19;;;;;;;3.20;1.02;;;;;;;;;;5055019;28;20207;-88
2023/10/16 15:33:47;;;;;;;1.90;0.90;;;;;;;;;;5051422;28;20234;-90
2023/10/16 15:36:17;;;;;;;3.42;0.80;;;;;;;;;;5041537;28;20266;-88
2023/10/16 15:38:45;;;;;;;3.25;1.15;;;;;;;;;;5035531;28;20200;-90
2023/10/16 15:41:15;;;;;;;3.20;1.02;;;;;;;;;;5035338;28;20201;-89
2023/10/16 15:43:58;;;;;;;1.50;1.03;;;;;;;;;;5039675;28;20204;-90
2023/10/16 15:46:30;;;;;;;3.13;1.20;;;;;;;;;;5052935;28;20204;-90
2023/10/16 15:48:59;;;;;;;3.90;1.07;;;;;;;;;;5034576;28;20240;-91
2023/10/16 15:51:30;;;;;;;3.57;1.20;;;;;;;;;;5052444;28;20207;-91
2023/10/16 15:53:57;;;;;;;2.97;1.00;;;;;;;;;;5041875;28;20228;-91
2023/10/16 15:56:26;;;;;;;2.23;0.80;;;;;;;;;;5044670;28;20676;-89
2023/10/16 15:58:58;;;;;;;2.40;1.10;;;;;;;;;;5051952;28;20291;-90
2023/10/16 16:01:26;;;;;;;2.93;1.17;;;;;;;;;;5048021;28;20207;-91
2023/10/16 16:03:57;;;;;;;2.00;0.90;;;;;;;;;;5053675;28;20672;-91
2023/10/16 16:06:29;;;;;;;3.47;1.07;;;;;;;;;;5051459;28;20195;-91
2023/10/16 16:08:59;;;;;;;4.60;1.10;;;;;;;;;;5054028;28;20222;-90
2023/10/16 16:11:28;;;;;;;3.07;1.10;;;;;;;;;;5054897;28;20634;-92
2023/10/16 16:13:57;;;;;;;3.43;1.00;;;;;;;;;;5058379;28;20230;-92
2023/10/16 16:16:25;;;;;;;2.17;0.90;;;;;;;;;;5054330;28;20207;-92
2023/10/16 16:18:52;;;;;;;3.80;1.30;;;;;;;;;;5050814;28;20619;-92
2023/10/16 16:21:20;;;;;;;2.80;1.00;;;;;;;;;;5053182;28;20204;-91
2023/10/16 16:23:48;;;;;;;3.53;1.03;;;;;;;;;;5053546;28;20200;-91
2023/10/16 16:26:16;;;;;;;2.57;1.23;;;;;;;;;;5054594;28;20274;-91